Time;durP1;ratioP1;P1;durP2;ratioP2;P2;SDS_P1;SDS_P2;PMS_P1;PMS_P2;Temp;Humidity;BMP_temperature;BMP_pressure;BME280_temperature;BME280_humidity;BME280_pressure;Samples;Min_cycle;Max_cycle;Signal;HPM_P1;HPM_P2
2022/10/16 00:02:26;;;;;;;1.70;0.60;;;;;;;;;;10363733;28;20050;-82
2022/10/16 00:07:29;;;;;;;2.08;1.10;;;;;;;;;;10362701;28;20041;-79
2022/10/16 00:12:33;;;;;;;0.50;0.40;;;;;;;;;;10380053;28;20058;-78
2022/10/16 00:17:37;;;;;;;1.02;0.50;;;;;;;;;;10362503;28;20034;-78
2022/10/16 00:22:41;;;;;;;0.82;0.57;;;;;;;;;;10378804;28;20042;-79
2022/10/16 00:27:44;;;;;;;0.60;0.38;;;;;;;;;;10394183;28;20084;-80
2022/10/16 00:32:49;;;;;;;1.85;0.40;;;;;;;;;;10361442;28;20617;-80
2022/10/16 00:37:53;;;;;;;1.20;0.30;;;;;;;;;;10376105;28;20049;-81
2022/10/16 00:42:56;;;;;;;0.63;0.25;;;;;;;;;;10359881;28;20042;-80
2022/10/16 00:48:01;;;;;;;0.32;0.22;;;;;;;;;;10355293;28;20065;-83
2022/10/16 00:53:05;;;;;;;0.20;0.20;;;;;;;;;;10377102;28;20133;-81
2022/10/16 00:58:08;;;;;;;0.35;0.20;;;;;;;;;;10391870;28;20693;-78
2022/10/16 01:03:27;;;;;;;0.55;0.30;;;;;;;;;;10376701;28;20041;-83
2022/10/16 01:08:40;;;;;;;0.95;0.10;;;;;;;;;;10357414;28;20125;-80
2022/10/16 01:13:48;;;;;;;0.60;0.10;;;;;;;;;;10358949;28;20072;-83
2022/10/16 01:18:58;;;;;;;0.20;0.10;;;;;;;;;;10396866;28;20585;-83
2022/10/16 01:24:08;;;;;;;0.68;0.20;;;;;;;;;;10397095;28;20042;-80
2022/10/16 01:29:19;;;;;;;0.17;0.17;;;;;;;;;;10392633;28;20053;-80
2022/10/16 01:34:29;;;;;;;0.35;0.10;;;;;;;;;;10362368;28;20046;-80
2022/10/16 01:39:35;;;;;;;0.90;0.20;;;;;;;;;;10367072;28;20311;-83
2022/10/16 01:44:41;;;;;;;0.40;0.20;;;;;;;;;;10388106;28;20073;-82
2022/10/16 01:49:46;;;;;;;0.30;0.17;;;;;;;;;;10384556;28;20042;-81
2022/10/16 01:54:54;;;;;;;0.50;0.20;;;;;;;;;;10386891;28;20045;-81
2022/10/16 02:00:07;;;;;;;0.20;0.20;;;;;;;;;;10385707;28;20049;-83
2022/10/16 02:05:20;;;;;;;0.30;0.30;;;;;;;;;;10375287;28;20053;-79
2022/10/16 02:10:24;;;;;;;1.45;0.20;;;;;;;;;;10399518;28;20418;-79
2022/10/16 02:15:29;;;;;;;0.28;0.20;;;;;;;;;;10365068;28;20037;-82
2022/10/16 02:20:39;;;;;;;0.30;0.30;;;;;;;;;;10380018;28;20050;-83
2022/10/16 02:25:45;;;;;;;0.20;0.20;;;;;;;;;;10374390;28;20175;-79
2022/10/16 02:30:57;;;;;;;0.20;0.20;;;;;;;;;;10375701;28;20577;-78
2022/10/16 02:36:00;;;;;;;0.30;0.30;;;;;;;;;;10350388;28;20042;-78
2022/10/16 02:41:05;;;;;;;0.45;0.15;;;;;;;;;;10352856;28;20409;-82
2022/10/16 02:46:10;;;;;;;0.20;0.20;;;;;;;;;;10354145;28;20040;-83
2022/10/16 02:51:13;;;;;;;0.10;0.10;;;;;;;;;;10352508;28;20592;-80
2022/10/16 02:56:16;;;;;;;0.20;0.20;;;;;;;;;;10386541;28;20692;-80
2022/10/16 03:01:26;;;;;;;0.10;0.10;;;;;;;;;;10371631;28;20042;-80
2022/10/16 03:06:30;;;;;;;1.15;0.20;;;;;;;;;;10357396;28;20053;-86
2022/10/16 03:11:33;;;;;;;0.80;0.15;;;;;;;;;;10375512;28;20044;-80
2022/10/16 03:16:38;;;;;;;0.20;0.10;;;;;;;;;;10376783;28;20654;-80
2022/10/16 03:21:41;;;;;;;0.47;0.13;;;;;;;;;;10358124;28;20045;-82
2022/10/16 03:26:44;;;;;;;0.73;0.20;;;;;;;;;;10359965;28;20124;-81
2022/10/16 03:31:49;;;;;;;1.80;0.20;;;;;;;;;;10372033;28;20064;-78
2022/10/16 03:36:53;;;;;;;0.20;0.20;;;;;;;;;;10358317;28;20046;-78
2022/10/16 03:41:56;;;;;;;0.28;0.20;;;;;;;;;;10366535;28;20065;-80
2022/10/16 03:47:01;;;;;;;0.10;0.10;;;;;;;;;;10316966;28;20048;-81
2022/10/16 03:52:05;;;;;;;1.02;0.20;;;;;;;;;;10333408;28;20073;-79
2022/10/16 03:57:08;;;;;;;1.27;0.20;;;;;;;;;;10334231;28;20042;-84
2022/10/16 04:02:16;;;;;;;0.20;0.20;;;;;;;;;;10353547;28;20045;-85
2022/10/16 04:07:19;;;;;;;0.40;0.15;;;;;;;;;;10321735;28;20046;-82
2022/10/16 04:12:22;;;;;;;0.45;0.20;;;;;;;;;;10334217;28;20048;-84
2022/10/16 04:17:27;;;;;;;0.10;0.10;;;;;;;;;;10335912;28;20503;-80
2022/10/16 04:22:30;;;;;;;0.50;0.10;;;;;;;;;;10350265;28;20054;-85
2022/10/16 04:27:34;;;;;;;2.45;0.10;;;;;;;;;;10333436;28;20046;-81
2022/10/16 04:32:38;;;;;;;0.20;0.10;;;;;;;;;;10334918;28;20525;-80
2022/10/16 04:37:42;;;;;;;0.10;0.10;;;;;;;;;;10330809;28;20115;-83
2022/10/16 04:42:45;;;;;;;0.17;0.10;;;;;;;;;;10330520;28;20053;-78
2022/10/16 04:47:50;;;;;;;0.35;0.17;;;;;;;;;;10333796;28;20068;-78
2022/10/16 04:52:53;;;;;;;0.65;0.20;;;;;;;;;;10349809;28;20061;-80
2022/10/16 04:57:56;;;;;;;0.20;0.20;;;;;;;;;;10316517;28;20046;-81
2022/10/16 05:03:05;;;;;;;0.45;0.13;;;;;;;;;;10335102;28;20082;-81
2022/10/16 05:08:09;;;;;;;0.20;0.20;;;;;;;;;;10337473;28;20498;-81
2022/10/16 05:13:12;;;;;;;0.63;0.20;;;;;;;;;;10333920;28;20049;-79
2022/10/16 05:18:17;;;;;;;0.50;0.40;;;;;;;;;;10346664;28;20054;-87
2022/10/16 05:23:23;;;;;;;0.30;0.30;;;;;;;;;;10326563;28;20050;-80
2022/10/16 05:28:28;;;;;;;0.40;0.40;;;;;;;;;;10341207;28;20078;-81
2022/10/16 05:33:33;;;;;;;0.63;0.38;;;;;;;;;;10339850;28;20106;-80
2022/10/16 05:38:37;;;;;;;0.32;0.30;;;;;;;;;;10323315;28;20410;-80
2022/10/16 05:43:40;;;;;;;0.20;0.20;;;;;;;;;;10321766;28;20528;-86
2022/10/16 05:48:45;;;;;;;0.30;0.22;;;;;;;;;;10320857;28;20050;-77
2022/10/16 05:53:48;;;;;;;0.20;0.20;;;;;;;;;;10336816;28;20056;-81
2022/10/16 05:58:52;;;;;;;0.65;0.20;;;;;;;;;;10305258;28;20101;-86
2022/10/16 06:03:56;;;;;;;2.78;0.40;;;;;;;;;;10324297;28;20050;-79
2022/10/16 06:09:00;;;;;;;0.30;0.30;;;;;;;;;;10324682;28;20050;-81
2022/10/16 06:14:06;;;;;;;0.85;0.32;;;;;;;;;;10340913;28;20069;-78
2022/10/16 06:19:11;;;;;;;0.17;0.17;;;;;;;;;;10308974;28;20425;-80
2022/10/16 06:24:14;;;;;;;0.85;0.20;;;;;;;;;;10342209;28;20142;-80
2022/10/16 06:29:18;;;;;;;0.50;0.20;;;;;;;;;;10326949;28;20053;-85
2022/10/16 06:34:23;;;;;;;0.30;0.22;;;;;;;;;;10327877;28;20506;-81
2022/10/16 06:39:26;;;;;;;0.30;0.20;;;;;;;;;;10328438;28;20046;-81
2022/10/16 06:44:30;;;;;;;0.50;0.28;;;;;;;;;;10328692;28;20042;-85
2022/10/16 06:49:35;;;;;;;0.30;0.30;;;;;;;;;;10343147;28;20046;-81
2022/10/16 06:54:38;;;;;;;0.50;0.30;;;;;;;;;;10329907;28;20077;-79
2022/10/16 06:59:44;;;;;;;0.40;0.30;;;;;;;;;;10343607;28;20133;-84
2022/10/16 07:04:50;;;;;;;0.30;0.30;;;;;;;;;;10328110;28;20532;-80
2022/10/16 07:09:53;;;;;;;0.40;0.35;;;;;;;;;;10309893;28;20463;-80
2022/10/16 07:14:57;;;;;;;0.47;0.38;;;;;;;;;;10327209;28;20046;-80
2022/10/16 07:20:02;;;;;;;0.55;0.55;;;;;;;;;;10325643;28;20046;-80
2022/10/16 07:25:06;;;;;;;0.93;0.43;;;;;;;;;;10373882;28;20056;-82
2022/10/16 07:30:10;;;;;;;0.40;0.40;;;;;;;;;;10364749;28;20536;-80
2022/10/16 07:35:15;;;;;;;0.50;0.40;;;;;;;;;;10345515;28;20046;-81
2022/10/16 07:40:18;;;;;;;0.40;0.40;;;;;;;;;;10343761;28;20042;-78
2022/10/16 07:45:22;;;;;;;0.85;0.40;;;;;;;;;;10360305;28;20137;-79
2022/10/16 07:50:26;;;;;;;0.40;0.30;;;;;;;;;;10343471;28;20243;-79
2022/10/16 07:55:30;;;;;;;0.20;0.20;;;;;;;;;;10353446;28;20075;-79
2022/10/16 08:00:34;;;;;;;0.20;0.20;;;;;;;;;;10345268;28;20644;-80
2022/10/16 08:05:39;;;;;;;0.40;0.40;;;;;;;;;;10358955;28;20050;-78
2022/10/16 08:10:42;;;;;;;0.30;0.30;;;;;;;;;;10360792;28;20092;-79
2022/10/16 08:15:46;;;;;;;1.45;0.30;;;;;;;;;;10343583;28;20164;-78
2022/10/16 08:20:56;;;;;;;0.30;0.30;;;;;;;;;;10375646;28;20045;-78
2022/10/16 08:26:04;;;;;;;1.42;0.77;;;;;;;;;;10361165;28;20945;-79
2022/10/16 08:31:09;;;;;;;0.25;0.20;;;;;;;;;;10368094;28;20045;-80
2022/10/16 08:36:14;;;;;;;0.55;0.28;;;;;;;;;;10362213;28;20057;-79
2022/10/16 08:41:56;;;;;;;0.30;0.30;;;;;;;;;;10361158;28;20045;-80
2022/10/16 08:47:07;;;;;;;0.17;0.17;;;;;;;;;;10263822;28;20038;-81
2022/10/16 08:52:14;;;;;;;0.25;0.25;;;;;;;;;;10403571;28;20049;-80
2022/10/16 08:57:20;;;;;;;0.68;0.30;;;;;;;;;;10401080;28;20125;-80
2022/10/16 09:02:32;;;;;;;0.28;0.20;;;;;;;;;;10386603;28;20047;-80
2022/10/16 09:07:44;;;;;;;0.20;0.20;;;;;;;;;;10399642;28;20042;-81
2022/10/16 09:12:54;;;;;;;0.73;0.30;;;;;;;;;;10371611;28;20049;-80
2022/10/16 09:18:13;;;;;;;0.25;0.20;;;;;;;;;;10355194;28;20136;-81
2022/10/16 09:23:20;;;;;;;0.40;0.30;;;;;;;;;;10357364;28;20049;-83
2022/10/16 09:28:23;;;;;;;0.13;0.13;;;;;;;;;;10380631;28;20121;-81
2022/10/16 09:33:31;;;;;;;0.60;0.35;;;;;;;;;;10383951;28;20066;-76
2022/10/16 09:38:39;;;;;;;1.30;0.50;;;;;;;;;;10375255;28;20105;-78
2022/10/16 09:43:47;;;;;;;0.68;0.40;;;;;;;;;;10386753;28;20042;-80
2022/10/16 09:48:53;;;;;;;1.00;0.55;;;;;;;;;;10366965;28;20549;-80
2022/10/16 09:54:00;;;;;;;0.80;0.50;;;;;;;;;;10334223;28;20093;-77
2022/10/16 09:59:12;;;;;;;0.30;0.30;;;;;;;;;;10318240;28;20046;-80
2022/10/16 10:04:15;;;;;;;0.20;0.10;;;;;;;;;;10322632;28;20113;-79
2022/10/16 10:09:22;;;;;;;0.10;0.10;;;;;;;;;;10289113;28;20047;-79
2022/10/16 10:14:29;;;;;;;1.52;0.30;;;;;;;;;;10298118;28;20049;-78
2022/10/16 10:19:40;;;;;;;0.57;0.22;;;;;;;;;;10307447;28;20046;-79
2022/10/16 10:24:45;;;;;;;0.38;0.30;;;;;;;;;;10307444;28;20034;-79
2022/10/16 10:29:59;;;;;;;0.57;0.10;;;;;;;;;;10312064;28;20077;-79
2022/10/16 10:35:12;;;;;;;0.28;0.20;;;;;;;;;;10307995;28;20046;-78
2022/10/16 10:40:30;;;;;;;0.10;0.10;;;;;;;;;;10303685;28;20046;-79
2022/10/16 10:45:42;;;;;;;0.15;0.03;;;;;;;;;;10315815;28;20053;-80
2022/10/16 10:50:52;;;;;;;0.08;0.00;;;;;;;;;;10323259;28;20049;-80
2022/10/16 10:56:05;;;;;;;0.10;0.10;;;;;;;;;;10355599;28;20062;-80
2022/10/16 11:01:11;;;;;;;0.00;0.00;;;;;;;;;;10342927;28;20045;-79
2022/10/16 11:06:18;;;;;;;1.20;0.10;;;;;;;;;;10334751;28;20050;-79
2022/10/16 11:11:28;;;;;;;0.40;0.10;;;;;;;;;;10354205;28;20042;-79
2022/10/16 11:16:35;;;;;;;0.00;0.00;;;;;;;;;;10354186;28;20050;-79
2022/10/16 11:21:44;;;;;;;0.50;0.13;;;;;;;;;;10352198;28;20038;-79
2022/10/16 11:26:50;;;;;;;0.10;0.10;;;;;;;;;;10357485;28;20038;-79
2022/10/16 11:31:59;;;;;;;0.00;0.00;;;;;;;;;;10344807;28;20054;-79
2022/10/16 11:37:05;;;;;;;0.08;0.08;;;;;;;;;;10347982;28;20053;-79
2022/10/16 11:42:14;;;;;;;0.00;0.00;;;;;;;;;;10353230;28;20038;-80
2022/10/16 11:47:27;;;;;;;0.28;0.20;;;;;;;;;;10359502;28;20120;-80
2022/10/16 11:52:56;;;;;;;0.10;0.10;;;;;;;;;;10353460;28;20461;-79
2022/10/16 11:58:06;;;;;;;0.25;0.10;;;;;;;;;;10334175;28;20088;-79
2022/10/16 12:03:18;;;;;;;0.77;0.20;;;;;;;;;;10351529;28;20045;-79
2022/10/16 12:08:22;;;;;;;0.25;0.20;;;;;;;;;;10341104;28;20041;-80
2022/10/16 12:13:35;;;;;;;0.10;0.10;;;;;;;;;;10350302;28;20045;-79
2022/10/16 12:18:40;;;;;;;0.30;0.30;;;;;;;;;;10345564;28;20033;-79
2022/10/16 12:23:49;;;;;;;0.40;0.20;;;;;;;;;;10351090;28;20053;-79
2022/10/16 12:28:55;;;;;;;0.10;0.10;;;;;;;;;;10328042;28;20873;-79
2022/10/16 12:34:00;;;;;;;0.20;0.20;;;;;;;;;;10355619;28;20502;-79
2022/10/16 12:39:04;;;;;;;0.20;0.20;;;;;;;;;;10318371;28;20034;-79
2022/10/16 12:49:48;;;;;;;0.35;0.20;;;;;;;;;;10583837;27;20136;-79
2022/10/16 12:54:52;;;;;;;0.13;0.13;;;;;;;;;;10492632;28;20579;-80
2022/10/16 13:00:02;;;;;;;0.38;0.30;;;;;;;;;;10475297;28;20055;-80
2022/10/16 13:05:26;;;;;;;0.40;0.40;;;;;;;;;;10468240;28;20044;-79
2022/10/16 13:10:36;;;;;;;2.92;0.40;;;;;;;;;;10472118;28;20045;-80
2022/10/16 13:15:53;;;;;;;0.50;0.50;;;;;;;;;;10463969;28;20036;-80
2022/10/16 13:21:11;;;;;;;0.60;0.60;;;;;;;;;;10463757;28;20056;-80
2022/10/16 13:26:24;;;;;;;1.70;0.80;;;;;;;;;;10473911;28;20389;-80
2022/10/16 13:31:28;;;;;;;1.60;0.70;;;;;;;;;;10473051;28;20047;-80
2022/10/16 13:36:43;;;;;;;0.80;0.63;;;;;;;;;;10475521;28;20045;-79
2022/10/16 13:41:47;;;;;;;0.50;0.38;;;;;;;;;;10473478;28;20056;-79
2022/10/16 13:47:00;;;;;;;0.35;0.35;;;;;;;;;;10472694;28;20509;-83
2022/10/16 13:52:04;;;;;;;0.40;0.40;;;;;;;;;;10491980;28;20520;-77
2022/10/16 13:57:08;;;;;;;0.50;0.43;;;;;;;;;;10467056;28;20135;-79
2022/10/16 14:02:29;;;;;;;0.95;0.40;;;;;;;;;;10443253;28;20079;-79
2022/10/16 14:07:34;;;;;;;0.40;0.40;;;;;;;;;;10442431;28;20041;-79
2022/10/16 14:12:38;;;;;;;0.40;0.40;;;;;;;;;;10440870;28;20056;-80
2022/10/16 14:17:46;;;;;;;0.45;0.45;;;;;;;;;;10430212;28;20103;-80
2022/10/16 14:23:01;;;;;;;0.60;0.45;;;;;;;;;;10443214;28;20041;-80
2022/10/16 14:28:15;;;;;;;0.50;0.30;;;;;;;;;;10436809;28;20033;-79
2022/10/16 14:33:32;;;;;;;0.40;0.40;;;;;;;;;;10444593;28;20741;-79
2022/10/16 14:38:39;;;;;;;0.30;0.30;;;;;;;;;;10427815;28;20042;-79
2022/10/16 14:43:44;;;;;;;1.23;0.50;;;;;;;;;;10445183;28;20052;-79
2022/10/16 14:48:51;;;;;;;0.40;0.40;;;;;;;;;;10444369;28;20127;-79
2022/10/16 14:53:56;;;;;;;0.63;0.20;;;;;;;;;;10437660;28;20516;-79
2022/10/16 14:59:03;;;;;;;0.30;0.30;;;;;;;;;;10441401;28;20312;-79
2022/10/16 15:04:08;;;;;;;0.20;0.20;;;;;;;;;;10444503;28;20060;-79
2022/10/16 15:09:13;;;;;;;1.73;0.40;;;;;;;;;;10461584;28;20041;-79
2022/10/16 15:14:16;;;;;;;0.30;0.30;;;;;;;;;;10447906;28;20037;-79
2022/10/16 15:19:19;;;;;;;0.30;0.28;;;;;;;;;;10482410;28;20037;-80
2022/10/16 15:24:24;;;;;;;0.65;0.60;;;;;;;;;;10451451;28;20048;-79
2022/10/16 15:29:27;;;;;;;0.57;0.55;;;;;;;;;;10446349;28;20036;-79
2022/10/16 15:34:31;;;;;;;0.60;0.50;;;;;;;;;;10446684;28;20045;-80
2022/10/16 15:39:35;;;;;;;0.77;0.68;;;;;;;;;;10449755;28;20056;-81
2022/10/16 15:44:40;;;;;;;2.10;1.00;;;;;;;;;;10450703;28;20056;-80
2022/10/16 15:49:43;;;;;;;0.63;0.60;;;;;;;;;;10453826;28;20059;-81
2022/10/16 15:54:48;;;;;;;0.73;0.73;;;;;;;;;;10450719;28;20056;-80
2022/10/16 15:59:52;;;;;;;1.10;0.60;;;;;;;;;;10454401;28;20095;-79
2022/10/16 16:04:56;;;;;;;1.02;0.70;;;;;;;;;;10445621;28;20048;-80
2022/10/16 16:10:00;;;;;;;1.40;0.77;;;;;;;;;;10451004;28;20044;-83
2022/10/16 16:15:05;;;;;;;0.90;0.60;;;;;;;;;;10451368;28;20402;-79
2022/10/16 16:20:10;;;;;;;0.90;0.70;;;;;;;;;;10489239;28;20107;-79
2022/10/16 16:25:15;;;;;;;0.68;0.68;;;;;;;;;;10492490;28;20044;-82
2022/10/16 16:30:20;;;;;;;1.10;1.00;;;;;;;;;;10488801;28;20028;-81
2022/10/16 16:35:25;;;;;;;1.90;1.20;;;;;;;;;;10490000;28;20539;-79
2022/10/16 16:40:29;;;;;;;1.77;1.40;;;;;;;;;;10492763;28;20053;-80
2022/10/16 16:45:36;;;;;;;;;;;;;;;;;;10494155;28;20182;-78
2022/10/16 16:50:39;;;;;;;2.45;0.80;;;;;;;;;;10488791;28;19920;-79
2022/10/16 16:55:44;;;;;;;1.52;1.02;;;;;;;;;;10496926;28;20044;-80
2022/10/16 17:00:49;;;;;;;1.33;1.23;;;;;;;;;;10516166;28;20040;-80
2022/10/16 17:05:57;;;;;;;1.10;1.00;;;;;;;;;;10509797;28;20114;-82
2022/10/16 17:11:02;;;;;;;1.80;1.27;;;;;;;;;;10495744;28;20708;-80
2022/10/16 17:16:06;;;;;;;2.08;1.42;;;;;;;;;;10494864;28;20052;-81
2022/10/16 17:21:10;;;;;;;3.00;1.60;;;;;;;;;;10492318;28;20523;-79
2022/10/16 17:26:17;;;;;;;3.45;1.60;;;;;;;;;;10494278;28;20091;-80
2022/10/16 17:31:23;;;;;;;1.63;1.13;;;;;;;;;;10495044;28;20560;-83
2022/10/16 17:36:28;;;;;;;1.48;1.20;;;;;;;;;;10509047;28;20040;-83
2022/10/16 17:41:34;;;;;;;2.38;1.58;;;;;;;;;;10503573;28;20060;-79
2022/10/16 17:46:38;;;;;;;1.40;1.20;;;;;;;;;;10511503;28;20519;-79
2022/10/16 17:51:42;;;;;;;3.53;1.13;;;;;;;;;;10520033;28;20048;-80
2022/10/16 17:56:47;;;;;;;2.70;1.17;;;;;;;;;;10531493;28;20497;-81
2022/10/16 18:01:51;;;;;;;1.60;1.40;;;;;;;;;;10513841;28;20131;-81
2022/10/16 18:06:55;;;;;;;1.10;1.00;;;;;;;;;;10508611;28;20048;-83
2022/10/16 18:12:00;;;;;;;1.63;0.95;;;;;;;;;;10523753;28;20691;-80
2022/10/16 18:17:03;;;;;;;1.38;0.85;;;;;;;;;;10487669;28;20459;-83
2022/10/16 18:22:06;;;;;;;3.17;1.00;;;;;;;;;;10470070;28;20128;-80
2022/10/16 18:27:11;;;;;;;3.03;1.08;;;;;;;;;;10459953;28;20048;-80
2022/10/16 18:32:15;;;;;;;1.45;1.02;;;;;;;;;;10458407;28;20091;-81
2022/10/16 18:37:18;;;;;;;4.10;1.33;;;;;;;;;;10448087;28;20061;-81
2022/10/16 18:42:23;;;;;;;1.77;1.25;;;;;;;;;;10465050;28;20461;-82
2022/10/16 18:47:29;;;;;;;3.15;1.40;;;;;;;;;;10454480;28;20049;-82
2022/10/16 18:52:32;;;;;;;2.87;1.37;;;;;;;;;;10459456;28;20094;-79
2022/10/16 18:57:37;;;;;;;3.13;1.35;;;;;;;;;;10454314;28;20068;-82
2022/10/16 19:02:40;;;;;;;2.78;1.05;;;;;;;;;;10478680;28;20045;-79
2022/10/16 19:07:47;;;;;;;1.80;0.88;;;;;;;;;;10458428;28;20045;-80
2022/10/16 19:12:51;;;;;;;3.17;1.20;;;;;;;;;;10456854;28;20065;-79
2022/10/16 19:17:55;;;;;;;5.85;5.00;;;;;;;;;;10452817;28;20048;-80
2022/10/16 19:22:59;;;;;;;6.20;4.25;;;;;;;;;;10453433;28;20068;-81
2022/10/16 19:28:06;;;;;;;3.22;2.60;;;;;;;;;;10450567;28;20106;-80
2022/10/16 19:33:09;;;;;;;4.95;2.40;;;;;;;;;;10454456;28;20548;-80
2022/10/16 19:38:13;;;;;;;4.50;2.08;;;;;;;;;;10458121;28;20064;-81
2022/10/16 19:43:18;;;;;;;4.53;1.98;;;;;;;;;;10436439;28;20064;-79
2022/10/16 19:48:21;;;;;;;2.83;1.88;;;;;;;;;;10441384;28;20049;-78
2022/10/16 19:53:31;;;;;;;2.97;1.80;;;;;;;;;;10454916;28;20725;-80
2022/10/16 19:58:36;;;;;;;2.17;1.88;;;;;;;;;;10441639;28;20124;-79
2022/10/16 20:03:39;;;;;;;2.42;2.00;;;;;;;;;;10442246;28;20037;-78
2022/10/16 20:08:44;;;;;;;1.70;1.60;;;;;;;;;;10449996;28;20061;-81
2022/10/16 20:13:49;;;;;;;2.30;1.88;;;;;;;;;;10458124;28;20810;-80
2022/10/16 20:18:53;;;;;;;1.60;1.48;;;;;;;;;;10457875;28;20056;-80
2022/10/16 20:23:57;;;;;;;2.20;1.77;;;;;;;;;;10447728;28;20033;-80
2022/10/16 20:29:02;;;;;;;1.70;1.60;;;;;;;;;;10443890;28;20034;-80
2022/10/16 20:34:07;;;;;;;1.95;1.33;;;;;;;;;;10464049;28;20673;-81
2022/10/16 20:39:12;;;;;;;2.35;1.73;;;;;;;;;;10466634;28;20389;-82
2022/10/16 20:44:17;;;;;;;2.67;1.50;;;;;;;;;;10463735;28;20037;-80
2022/10/16 20:49:20;;;;;;;1.60;1.50;;;;;;;;;;10451286;28;20044;-79
2022/10/16 20:54:31;;;;;;;2.72;1.65;;;;;;;;;;10445503;28;20051;-79
2022/10/16 20:59:35;;;;;;;1.50;1.38;;;;;;;;;;10449212;28;20045;-80
2022/10/16 21:04:39;;;;;;;2.13;1.60;;;;;;;;;;10467630;28;20791;-79
2022/10/16 21:09:42;;;;;;;1.83;1.30;;;;;;;;;;10456365;28;20033;-79
2022/10/16 21:14:47;;;;;;;3.08;1.20;;;;;;;;;;10460956;28;20045;-80
2022/10/16 21:20:05;;;;;;;0.93;0.82;;;;;;;;;;10449060;28;20509;-81
2022/10/16 21:25:09;;;;;;;0.93;0.70;;;;;;;;;;10450666;28;20064;-81
2022/10/16 21:30:14;;;;;;;2.05;0.90;;;;;;;;;;10454176;28;20040;-79
2022/10/16 21:35:17;;;;;;;1.35;0.75;;;;;;;;;;10451597;28;20436;-81
2022/10/16 21:40:20;;;;;;;2.05;0.63;;;;;;;;;;10455671;28;20189;-82
2022/10/16 21:45:25;;;;;;;2.60;1.10;;;;;;;;;;10450735;28;20056;-79
2022/10/16 21:50:28;;;;;;;1.42;0.95;;;;;;;;;;10455099;28;20044;-81
2022/10/16 21:55:36;;;;;;;1.45;1.13;;;;;;;;;;10457793;28;20512;-79
2022/10/16 22:00:40;;;;;;;2.13;0.93;;;;;;;;;;10458264;28;20046;-79
2022/10/16 22:05:44;;;;;;;1.60;0.90;;;;;;;;;;10454218;28;20036;-79
2022/10/16 22:10:47;;;;;;;1.23;1.13;;;;;;;;;;10453650;28;20049;-79
2022/10/16 22:15:52;;;;;;;1.40;0.95;;;;;;;;;;10446580;28;20564;-79
2022/10/16 22:20:55;;;;;;;1.30;0.88;;;;;;;;;;10454126;28;20061;-79
2022/10/16 22:25:59;;;;;;;0.85;0.80;;;;;;;;;;10452171;28;20048;-81
2022/10/16 22:31:07;;;;;;;0.90;0.68;;;;;;;;;;10457100;28;20132;-80
2022/10/16 22:36:12;;;;;;;0.98;0.77;;;;;;;;;;10459616;28;20048;-79
2022/10/16 22:41:15;;;;;;;1.90;0.73;;;;;;;;;;10452339;28;20049;-80
2022/10/16 22:46:22;;;;;;;0.80;0.70;;;;;;;;;;10465346;28;20041;-79
2022/10/16 22:51:27;;;;;;;0.82;0.82;;;;;;;;;;10467453;28;20044;-80
2022/10/16 22:56:30;;;;;;;0.73;0.63;;;;;;;;;;10483870;28;20549;-80
2022/10/16 23:01:37;;;;;;;2.33;1.10;;;;;;;;;;10454475;28;20040;-80
2022/10/16 23:06:41;;;;;;;1.90;0.82;;;;;;;;;;10447817;28;20041;-78
2022/10/16 23:11:44;;;;;;;1.23;0.50;;;;;;;;;;10447115;28;20037;-80
2022/10/16 23:16:49;;;;;;;1.30;0.80;;;;;;;;;;10446666;28;20045;-79
2022/10/16 23:21:52;;;;;;;0.90;0.90;;;;;;;;;;10454530;28;20055;-80
2022/10/16 23:26:56;;;;;;;0.90;0.73;;;;;;;;;;10436602;28;20053;-79
2022/10/16 23:32:00;;;;;;;2.40;0.75;;;;;;;;;;10446480;28;20424;-81
2022/10/16 23:37:05;;;;;;;1.13;0.68;;;;;;;;;;10446188;28;20045;-79
2022/10/16 23:42:08;;;;;;;0.68;0.60;;;;;;;;;;10505907;28;20036;-81
2022/10/16 23:47:13;;;;;;;1.00;0.70;;;;;;;;;;10505547;28;20044;-80
2022/10/16 23:52:16;;;;;;;0.80;0.63;;;;;;;;;;10482380;28;20036;-79
2022/10/16 23:57:20;;;;;;;1.02;0.60;;;;;;;;;;10486067;28;20378;-80
